createdAt,value
2023-01-12T00:01:45.662Z,200.33
2023-01-12T00:04:14.504Z,191.10
2023-01-12T00:06:42.678Z,191.77
2023-01-12T00:09:11.192Z,208.17
2023-01-12T00:11:40.077Z,210.23
2023-01-12T00:14:09.455Z,204.77
2023-01-12T00:16:41.439Z,202.10
2023-01-12T00:19:13.055Z,201.80
2023-01-12T00:21:52.461Z,204.43
2023-01-12T00:24:20.749Z,195.83
2023-01-12T00:26:49.484Z,209.23
2023-01-12T00:29:17.602Z,203.93
2023-01-12T00:31:45.795Z,203.03
2023-01-12T00:34:16.118Z,203.07
2023-01-12T00:36:44.165Z,214.80
2023-01-12T00:39:11.890Z,203.37
2023-01-12T00:41:57.615Z,206.00
2023-01-12T00:44:43.109Z,194.17
2023-01-12T00:47:11.876Z,186.17
2023-01-12T00:49:42.066Z,196.53
2023-01-12T00:52:18.272Z,189.33
2023-01-12T00:54:53.025Z,183.97
2023-01-12T00:57:20.654Z,195.63
2023-01-12T00:59:48.311Z,193.63
2023-01-12T01:02:16.071Z,200.43
2023-01-12T01:04:45.138Z,212.70
2023-01-12T01:07:16.007Z,192.00
2023-01-12T01:09:44.406Z,204.70
2023-01-12T01:12:12.133Z,192.17
2023-01-12T01:14:39.860Z,178.07
2023-01-12T01:17:07.612Z,184.40
2023-01-12T01:19:35.308Z,185.70
2023-01-12T01:22:04.690Z,190.20
2023-01-12T01:24:32.642Z,204.87
2023-01-12T01:27:00.299Z,198.77
2023-01-12T01:29:27.996Z,195.97
2023-01-12T01:31:56.298Z,202.07
2023-01-12T01:34:24.664Z,195.27
2023-01-12T01:36:52.354Z,204.93
2023-01-12T01:39:21.349Z,191.93
2023-01-12T01:41:49.072Z,193.17
2023-01-12T01:44:53.707Z,207.67
2023-01-12T01:47:33.453Z,190.10
2023-01-12T01:50:04.008Z,197.37
2023-01-12T01:52:35.637Z,226.07
2023-01-12T01:55:09.494Z,198.00
2023-01-12T01:57:44.001Z,207.50
2023-01-12T02:00:13.768Z,196.13
2023-01-12T02:02:43.652Z,199.27
2023-01-12T02:05:12.708Z,221.73
2023-01-12T02:07:41.925Z,219.97
2023-01-12T02:10:12.248Z,213.47
2023-01-12T02:12:58.333Z,206.53
2023-01-12T02:15:48.048Z,199.60
2023-01-12T02:18:22.635Z,196.43
2023-01-12T02:21:03.716Z,203.93
2023-01-12T02:24:00.662Z,216.53
2023-01-12T02:26:54.354Z,215.70
2023-01-12T02:29:46.590Z,208.97
2023-01-12T02:32:26.148Z,195.30
2023-01-12T02:35:05.551Z,208.87
2023-01-12T02:37:43.050Z,205.17
2023-01-12T02:40:16.666Z,207.80
2023-01-12T02:42:54.485Z,199.77
2023-01-12T02:45:34.889Z,188.50
2023-01-12T02:48:10.323Z,207.10
2023-01-12T02:50:44.824Z,219.57
2023-01-12T02:53:18.086Z,207.10
2023-01-12T02:55:47.537Z,199.03
2023-01-12T02:58:18.773Z,213.67
2023-01-12T03:00:50.361Z,203.90
2023-01-12T03:03:20.260Z,199.30
2023-01-12T03:05:48.469Z,212.13
2023-01-12T03:08:18.905Z,216.13
2023-01-12T03:11:01.512Z,207.60
2023-01-12T03:13:32.740Z,205.47
2023-01-12T03:16:02.056Z,208.03
2023-01-12T03:18:34.021Z,208.67
2023-01-12T03:21:06.122Z,220.47
2023-01-12T03:23:42.379Z,215.23
2023-01-12T03:26:12.491Z,216.07
2023-01-12T03:28:44.117Z,213.00
2023-01-12T03:31:13.998Z,213.23
2023-01-12T03:33:44.563Z,209.77
2023-01-12T03:36:20.533Z,196.17
2023-01-12T03:39:01.063Z,223.80
2023-01-12T03:41:38.972Z,210.87
2023-01-12T03:44:15.192Z,190.17
2023-01-12T03:46:48.009Z,207.23
2023-01-12T03:49:24.316Z,220.93
2023-01-12T03:51:54.208Z,209.13
2023-01-12T03:54:23.163Z,216.77
2023-01-12T03:56:51.760Z,225.73
2023-01-12T03:59:19.609Z,219.57
2023-01-12T04:01:48.901Z,226.83
2023-01-12T04:04:18.237Z,204.93
2023-01-12T04:06:45.857Z,198.20
2023-01-12T04:09:13.446Z,210.83
2023-01-12T04:11:58.541Z,216.53
2023-01-12T04:14:26.549Z,182.30
2023-01-12T04:16:54.227Z,199.90
2023-01-12T04:19:23.205Z,201.53
2023-01-12T04:22:08.788Z,219.53
2023-01-12T04:24:36.391Z,208.07
2023-01-12T04:27:04.258Z,202.57
2023-01-12T04:29:31.885Z,208.43
2023-01-12T04:31:59.593Z,213.73
2023-01-12T04:34:28.630Z,212.93
2023-01-12T04:36:56.254Z,221.10
2023-01-12T04:39:24.223Z,213.13
2023-01-12T04:41:52.401Z,217.27
2023-01-12T04:44:20.338Z,201.77
2023-01-12T04:46:50.581Z,195.30
2023-01-12T04:49:18.629Z,207.70
2023-01-12T04:51:47.688Z,225.03
2023-01-12T04:54:15.332Z,200.57
2023-01-12T04:56:43.036Z,218.63
2023-01-12T04:59:10.763Z,225.97
2023-01-12T05:01:39.103Z,223.50
2023-01-12T05:04:08.055Z,235.00
2023-01-12T05:06:35.939Z,205.73
2023-01-12T05:09:22.446Z,208.30
2023-01-12T05:11:50.096Z,225.03
2023-01-12T05:14:17.717Z,210.80
2023-01-12T05:16:45.614Z,219.77
2023-01-12T05:19:13.359Z,223.80
2023-01-12T05:21:41.082Z,204.13
2023-01-12T05:24:10.408Z,212.47
2023-01-12T05:26:38.236Z,218.17
2023-01-12T05:29:05.865Z,208.70
2023-01-12T05:31:35.509Z,215.87
2023-01-12T05:34:03.179Z,224.50
2023-01-12T05:36:31.096Z,207.13
2023-01-12T05:38:59.617Z,195.83
2023-01-12T05:41:28.657Z,214.53
2023-01-12T05:43:55.361Z,212.60
2023-01-12T05:46:25.315Z,196.80
2023-01-12T05:48:54.463Z,205.37
2023-01-12T05:51:22.598Z,224.90
2023-01-12T05:53:51.346Z,208.30
2023-01-12T05:56:21.093Z,202.80
2023-01-12T05:58:54.657Z,218.27
2023-01-12T06:01:23.183Z,209.30
2023-01-12T06:03:51.911Z,213.03
2023-01-12T06:06:20.697Z,231.17
2023-01-12T06:08:50.694Z,208.97
2023-01-12T06:11:36.784Z,205.93
2023-01-12T06:14:06.305Z,217.07
2023-01-12T06:16:34.171Z,203.13
2023-01-12T06:19:02.174Z,217.40
2023-01-12T06:21:29.987Z,212.97
2023-01-12T06:23:57.670Z,228.67
2023-01-12T06:26:25.370Z,202.87
2023-01-12T06:28:53.094Z,228.60
2023-01-12T06:31:22.194Z,218.33
2023-01-12T06:33:49.945Z,207.77
2023-01-12T06:36:17.620Z,211.10
2023-01-12T06:38:45.298Z,209.83
2023-01-12T06:41:34.316Z,221.07
2023-01-12T06:44:01.980Z,192.57
2023-01-12T06:46:31.562Z,212.20
2023-01-12T06:48:59.785Z,214.23
2023-01-12T06:51:27.592Z,206.67
2023-01-12T06:53:55.595Z,222.73
2023-01-12T06:56:23.387Z,207.90
2023-01-12T06:58:51.130Z,223.53
2023-01-12T07:01:18.969Z,231.60
2023-01-12T07:03:48.077Z,198.13
2023-01-12T07:06:16.565Z,200.13
2023-01-12T07:08:44.233Z,208.53
2023-01-12T07:11:12.718Z,210.43
2023-01-12T07:13:40.382Z,216.93
2023-01-12T07:16:08.760Z,202.37
2023-01-12T07:18:36.680Z,205.53
2023-01-12T07:21:10.424Z,207.87
2023-01-12T07:23:38.520Z,208.97
2023-01-12T07:26:06.396Z,208.20
2023-01-12T07:28:35.534Z,203.97
2023-01-12T07:31:04.573Z,219.57
2023-01-12T07:33:34.273Z,233.63
2023-01-12T07:36:02.882Z,208.80
2023-01-12T07:38:32.394Z,205.30
2023-01-12T07:41:00.375Z,218.90
2023-01-12T07:43:28.647Z,213.70
2023-01-12T07:45:57.852Z,212.07
2023-01-12T07:48:26.743Z,208.33
2023-01-12T07:50:54.720Z,205.87
2023-01-12T07:53:22.395Z,201.33
2023-01-12T07:55:51.436Z,209.90
2023-01-12T07:58:19.157Z,227.67
2023-01-12T08:00:46.908Z,199.03
2023-01-12T08:03:15.250Z,201.40
2023-01-12T08:05:43.101Z,199.67
2023-01-12T08:08:10.804Z,224.40
2023-01-12T08:10:38.552Z,210.97
2023-01-12T08:13:07.644Z,192.60
2023-01-12T08:15:41.238Z,219.43
2023-01-12T08:18:15.088Z,194.50
2023-01-12T08:20:43.567Z,196.57
2023-01-12T08:23:14.381Z,206.80
2023-01-12T08:25:46.149Z,207.43
2023-01-12T08:28:19.981Z,214.07
2023-01-12T08:30:49.668Z,201.57
2023-01-12T08:33:17.753Z,199.87
2023-01-12T08:35:47.200Z,208.20
2023-01-12T08:38:15.101Z,215.33
2023-01-12T08:41:00.291Z,209.03
2023-01-12T08:43:46.768Z,205.00
2023-01-12T08:46:14.601Z,203.13
2023-01-12T08:48:42.371Z,213.33
2023-01-12T08:51:10.381Z,215.00
2023-01-12T08:53:38.009Z,222.10
2023-01-12T08:56:06.379Z,226.57
2023-01-12T08:58:35.499Z,212.30
2023-01-12T09:01:10.659Z,211.57
2023-01-12T09:03:39.211Z,223.23
2023-01-12T09:06:11.378Z,210.47
2023-01-12T09:08:39.015Z,215.70
2023-01-12T09:11:07.405Z,217.77
2023-01-12T09:13:37.020Z,199.60
2023-01-12T09:16:12.752Z,208.97
2023-01-12T09:18:41.671Z,229.23
2023-01-12T09:21:11.360Z,221.07
2023-01-12T09:23:39.860Z,217.73
2023-01-12T09:26:08.916Z,223.67
2023-01-12T09:28:38.578Z,202.53
2023-01-12T09:31:08.740Z,223.17
2023-01-12T09:33:38.411Z,232.13
2023-01-12T09:36:08.297Z,210.83
2023-01-12T09:38:37.157Z,211.73
2023-01-12T09:41:13.118Z,220.50
2023-01-12T09:44:05.321Z,234.60
2023-01-12T09:46:56.865Z,202.00
2023-01-12T09:49:29.693Z,226.17
2023-01-12T09:52:01.544Z,217.13
2023-01-12T09:54:29.331Z,217.77
2023-01-12T09:57:09.290Z,220.93
2023-01-12T09:59:49.661Z,219.40
2023-01-12T10:02:17.535Z,228.10
2023-01-12T10:04:46.954Z,222.07
2023-01-12T10:07:17.140Z,237.97
2023-01-12T10:09:45.443Z,222.23
2023-01-12T10:12:21.425Z,224.23
2023-01-12T10:15:24.810Z,227.53
2023-01-12T10:17:57.365Z,212.80
2023-01-12T10:20:31.231Z,230.53
2023-01-12T10:23:09.676Z,220.30
2023-01-12T10:25:41.268Z,217.23
2023-01-12T10:28:14.709Z,217.40
2023-01-12T10:30:44.762Z,220.10
2023-01-12T10:33:15.933Z,233.40
2023-01-12T10:35:58.628Z,233.30
2023-01-12T10:38:29.324Z,221.90
2023-01-12T10:41:13.045Z,245.17
2023-01-12T10:43:42.145Z,215.00
2023-01-12T10:46:14.116Z,245.60
2023-01-12T10:48:44.124Z,215.85
2023-01-12T10:51:27.425Z,236.02
2023-01-12T10:54:01.270Z,241.30
2023-01-12T10:56:35.179Z,228.73
2023-01-12T10:59:05.439Z,243.33
2023-01-12T11:01:50.749Z,222.77
2023-01-12T11:04:21.969Z,228.23
2023-01-12T11:07:05.133Z,228.60
2023-01-12T11:09:33.233Z,215.67
2023-01-12T11:12:03.431Z,232.50
2023-01-12T11:14:35.836Z,231.38
2023-01-12T11:17:29.269Z,242.37
2023-01-12T11:19:58.443Z,238.32
2023-01-12T11:22:28.616Z,236.53
2023-01-12T11:24:59.271Z,243.55
2023-01-12T11:27:32.763Z,246.25
2023-01-12T11:30:04.859Z,237.48
2023-01-12T11:32:40.841Z,238.27
2023-01-12T11:35:23.270Z,233.23
2023-01-12T11:37:54.899Z,233.60
2023-01-12T11:40:30.071Z,227.73
2023-01-12T11:43:24.243Z,243.53
2023-01-12T11:45:57.448Z,228.50
2023-01-12T11:48:38.430Z,248.17
2023-01-12T11:51:06.283Z,228.07
2023-01-12T11:53:34.422Z,256.63
2023-01-12T11:56:18.352Z,245.55
2023-01-12T11:58:56.118Z,246.63
2023-01-12T12:01:31.205Z,229.07
2023-01-12T12:04:22.484Z,232.10
2023-01-12T12:07:06.209Z,255.77
2023-01-12T12:10:01.087Z,232.07
2023-01-12T12:12:39.103Z,235.98
2023-01-12T12:15:19.188Z,256.93
2023-01-12T12:17:55.547Z,255.80
2023-01-12T12:20:33.579Z,239.57
2023-01-12T12:23:14.543Z,239.27
2023-01-12T12:25:53.715Z,237.77
2023-01-12T12:28:39.192Z,241.75
2023-01-12T12:31:48.716Z,233.27
2023-01-12T12:34:38.333Z,225.77
2023-01-12T12:37:17.930Z,251.25
2023-01-12T12:40:04.702Z,243.23
2023-01-12T12:43:06.297Z,250.90
2023-01-12T12:45:44.660Z,239.77
2023-01-12T12:48:16.558Z,246.68
2023-01-12T12:50:51.001Z,256.90
2023-01-12T12:53:26.179Z,223.80
2023-01-12T12:55:56.931Z,242.45
2023-01-12T12:58:39.727Z,227.45
2023-01-12T13:01:44.296Z,223.43
2023-01-12T13:04:14.832Z,230.63
2023-01-12T13:06:49.532Z,242.25
2023-01-12T13:09:43.257Z,238.82
2023-01-12T13:12:20.988Z,228.02
2023-01-12T13:15:18.810Z,242.90
2023-01-12T13:17:48.824Z,239.70
2023-01-12T13:20:50.937Z,233.30
2023-01-12T13:23:56.920Z,219.00
2023-01-12T13:26:44.623Z,223.83
2023-01-12T13:29:40.759Z,210.57
2023-01-12T13:32:36.392Z,231.27
2023-01-12T13:35:04.969Z,234.40
2023-01-12T13:37:45.538Z,228.37
2023-01-12T13:40:19.743Z,237.93
2023-01-12T13:43:08.885Z,228.17
2023-01-12T13:45:37.821Z,229.80
2023-01-12T13:48:08.018Z,245.20
2023-01-12T13:50:38.079Z,234.90
2023-01-12T13:53:05.983Z,225.77
2023-01-12T13:55:36.067Z,262.97
2023-01-12T13:58:07.796Z,245.17
2023-01-12T14:00:35.748Z,222.68
2023-01-12T14:03:05.989Z,225.57
2023-01-12T14:05:59.853Z,237.60
2023-01-12T14:08:54.781Z,226.30
2023-01-12T14:11:42.149Z,232.73
2023-01-12T14:14:48.023Z,240.20
2023-01-12T14:17:41.507Z,221.57
2023-01-12T14:20:15.697Z,224.23
2023-01-12T14:22:43.592Z,238.73
2023-01-12T14:25:16.447Z,251.93
2023-01-12T14:27:52.409Z,233.87
2023-01-12T14:30:22.415Z,219.60
2023-01-12T14:32:51.352Z,241.70
2023-01-12T14:35:21.921Z,212.40
2023-01-12T14:37:52.952Z,247.03
2023-01-12T14:40:23.783Z,233.15
2023-01-12T14:43:09.522Z,221.17
2023-01-12T14:46:13.128Z,235.37
2023-01-12T14:48:43.682Z,209.43
2023-01-12T14:51:19.207Z,235.93
2023-01-12T14:53:49.078Z,237.87
2023-01-12T14:56:19.544Z,233.38
2023-01-12T14:58:48.677Z,214.40
2023-01-12T15:01:33.730Z,231.77
2023-01-12T15:04:02.606Z,217.57
2023-01-12T15:06:30.498Z,241.73
2023-01-12T15:09:00.268Z,231.77
2023-01-12T15:11:36.296Z,233.57
2023-01-12T15:14:07.111Z,244.30
2023-01-12T15:16:54.337Z,237.30
2023-01-12T15:19:39.881Z,247.57
2023-01-12T15:22:28.688Z,227.63
2023-01-12T15:25:14.508Z,237.95
2023-01-12T15:27:42.267Z,233.15
2023-01-12T15:30:12.439Z,252.45
2023-01-12T15:32:48.207Z,256.63
2023-01-12T15:35:21.037Z,232.35
2023-01-12T15:37:48.781Z,229.35
2023-01-12T15:40:17.268Z,248.38
2023-01-12T15:42:44.945Z,244.05
2023-01-12T15:45:28.623Z,253.60
2023-01-12T15:47:57.778Z,245.33
2023-01-12T15:50:25.592Z,235.07
2023-01-12T15:52:53.663Z,262.77
2023-01-12T15:55:23.135Z,247.35
2023-01-12T15:57:52.157Z,253.18
2023-01-12T16:00:22.158Z,240.75
2023-01-12T16:02:51.253Z,236.65
2023-01-12T16:05:21.975Z,249.30
2023-01-12T16:07:50.252Z,249.98
2023-01-12T16:10:18.801Z,256.60
2023-01-12T16:12:47.761Z,252.30
2023-01-12T16:15:18.047Z,256.33
2023-01-12T16:17:45.883Z,260.45
2023-01-12T16:20:16.090Z,257.05
2023-01-12T16:22:46.556Z,271.83
2023-01-12T16:25:14.952Z,267.90
2023-01-12T16:27:42.797Z,260.58
2023-01-12T16:30:14.316Z,255.48
2023-01-12T16:32:47.139Z,261.80
2023-01-12T16:35:15.973Z,275.42
2023-01-12T16:37:45.065Z,251.13
2023-01-12T16:40:13.715Z,253.77
2023-01-12T16:42:41.413Z,252.88
2023-01-12T16:45:10.772Z,263.63
2023-01-12T16:47:38.643Z,267.55
2023-01-12T16:50:07.244Z,249.30
2023-01-12T16:52:35.226Z,256.05
2023-01-12T16:55:05.774Z,250.05
2023-01-12T16:57:34.594Z,252.70
2023-01-12T17:00:02.270Z,246.85
2023-01-12T17:02:31.424Z,254.43
2023-01-12T17:04:59.683Z,263.05
2023-01-12T17:07:27.749Z,266.25
2023-01-12T17:09:55.520Z,252.18
2023-01-12T17:12:24.647Z,250.85
2023-01-12T17:14:52.410Z,247.75
2023-01-12T17:17:20.278Z,246.15
2023-01-12T17:19:48.115Z,268.75
2023-01-12T17:22:16.166Z,246.50
2023-01-12T17:24:43.944Z,252.73
2023-01-12T17:27:12.012Z,267.27
2023-01-12T17:29:41.094Z,252.35
2023-01-12T17:32:09.137Z,252.18
2023-01-12T17:34:39.495Z,254.87
2023-01-12T17:37:08.663Z,255.52
2023-01-12T17:39:37.078Z,255.60
2023-01-12T17:42:22.666Z,250.25
2023-01-12T17:44:51.824Z,228.25
2023-01-12T17:47:19.522Z,247.95
2023-01-12T17:49:47.874Z,253.07
2023-01-12T17:52:15.676Z,247.20
2023-01-12T17:54:43.455Z,233.63
2023-01-12T17:57:11.295Z,244.55
2023-01-12T17:59:38.965Z,243.27
2023-01-12T18:02:08.420Z,249.00
2023-01-12T18:04:36.250Z,245.50
2023-01-12T18:07:04.091Z,255.83
2023-01-12T18:09:32.165Z,242.30
2023-01-12T18:12:00.292Z,252.03
2023-01-12T18:14:28.193Z,239.23
2023-01-12T18:16:57.321Z,251.75
2023-01-12T18:19:26.501Z,249.77
2023-01-12T18:21:54.215Z,230.77
2023-01-12T18:24:22.235Z,226.95
2023-01-12T18:26:50.841Z,243.25
2023-01-12T18:29:18.524Z,236.97
2023-01-12T18:31:47.228Z,232.23
2023-01-12T18:34:16.388Z,249.55
2023-01-12T18:36:46.322Z,230.60
2023-01-12T18:39:17.589Z,231.88
2023-01-12T18:42:03.122Z,247.30
2023-01-12T18:44:32.143Z,213.33
2023-01-12T18:47:17.701Z,250.80
2023-01-12T18:49:46.604Z,245.23
2023-01-12T18:52:34.785Z,234.85
2023-01-12T18:55:02.473Z,231.63
2023-01-12T18:57:32.315Z,237.77
2023-01-12T19:00:11.827Z,237.13
2023-01-12T19:02:39.901Z,224.43
2023-01-12T19:05:20.490Z,251.20
2023-01-12T19:08:05.059Z,241.43
2023-01-12T19:10:34.027Z,223.38
2023-01-12T19:13:19.523Z,239.73
2023-01-12T19:16:05.322Z,232.57
2023-01-12T19:18:35.551Z,228.10
2023-01-12T19:21:17.149Z,212.63
2023-01-12T19:24:05.794Z,235.80
2023-01-12T19:26:51.210Z,216.80
2023-01-12T19:29:18.900Z,234.83
2023-01-12T19:31:46.536Z,212.50
2023-01-12T19:34:14.280Z,231.77
2023-01-12T19:36:42.026Z,219.38
2023-01-12T19:39:11.492Z,232.30
2023-01-12T19:41:57.234Z,238.70
2023-01-12T19:44:24.897Z,214.83
2023-01-12T19:46:52.573Z,230.57
2023-01-12T19:49:20.251Z,222.00
2023-01-12T19:51:48.645Z,235.68
2023-01-12T19:54:17.682Z,241.32
2023-01-12T19:56:47.432Z,230.57
2023-01-12T19:59:15.163Z,236.82
2023-01-12T20:01:42.959Z,232.20
2023-01-12T20:04:10.645Z,220.98
2023-01-12T20:06:38.327Z,216.65
2023-01-12T20:09:06.011Z,226.32
2023-01-12T20:11:35.045Z,230.52
2023-01-12T20:14:02.733Z,231.43
2023-01-12T20:16:30.632Z,240.65
2023-01-12T20:18:59.446Z,254.77
2023-01-12T20:21:27.102Z,262.30
2023-01-12T20:23:54.896Z,230.38
2023-01-12T20:26:22.527Z,245.25
2023-01-12T20:28:51.547Z,243.95
2023-01-12T20:31:20.317Z,250.90
2023-01-12T20:33:48.707Z,239.35
2023-01-12T20:36:17.922Z,268.42
2023-01-12T20:38:46.912Z,258.00
2023-01-12T20:41:14.561Z,244.05
2023-01-12T20:43:42.288Z,256.08
2023-01-12T20:46:13.354Z,254.73
2023-01-12T20:48:41.792Z,243.65
2023-01-12T20:51:10.397Z,249.00
2023-01-12T20:53:38.141Z,245.90
2023-01-12T20:56:06.758Z,251.27
2023-01-12T20:58:34.902Z,245.68
2023-01-12T21:01:02.701Z,244.07
2023-01-12T21:03:31.904Z,252.30
2023-01-12T21:06:00.933Z,234.02
2023-01-12T21:08:28.575Z,226.23
2023-01-12T21:10:56.269Z,236.30
2023-01-12T21:13:23.953Z,228.77
2023-01-12T21:15:57.969Z,231.13
2023-01-12T21:18:25.656Z,248.40
2023-01-12T21:20:54.657Z,246.82
2023-01-12T21:23:22.383Z,219.23
2023-01-12T21:25:50.556Z,245.02
2023-01-12T21:28:18.660Z,234.18
2023-01-12T21:30:46.665Z,235.47
2023-01-12T21:33:14.697Z,252.07
2023-01-12T21:35:42.382Z,261.37
2023-01-12T21:38:11.425Z,232.60
2023-01-12T21:40:39.110Z,255.45
2023-01-12T21:43:08.845Z,247.82
2023-01-12T21:45:37.095Z,241.82
2023-01-12T21:48:05.012Z,230.60
2023-01-12T21:50:33.598Z,246.87
2023-01-12T21:53:02.612Z,240.32
2023-01-12T21:55:32.704Z,243.13
2023-01-12T21:58:02.110Z,242.80
2023-01-12T22:00:30.499Z,231.85
2023-01-12T22:02:58.431Z,232.35
2023-01-12T22:05:27.112Z,235.32
2023-01-12T22:07:55.535Z,256.53
2023-01-12T22:10:30.071Z,246.40
2023-01-12T22:13:00.818Z,224.43
2023-01-12T22:15:30.245Z,247.13
2023-01-12T22:17:57.914Z,246.07
2023-01-12T22:20:27.692Z,231.90
2023-01-12T22:22:55.822Z,248.90
2023-01-12T22:25:24.058Z,244.55
2023-01-12T22:27:51.761Z,254.52
2023-01-12T22:30:24.016Z,224.38
2023-01-12T22:32:55.011Z,250.57
2023-01-12T22:35:22.808Z,253.15
2023-01-12T22:37:50.503Z,254.52
2023-01-12T22:40:18.656Z,236.90
2023-01-12T22:43:04.051Z,246.82
2023-01-12T22:45:35.477Z,236.23
2023-01-12T22:48:03.185Z,239.27
2023-01-12T22:50:30.913Z,251.48
2023-01-12T22:52:58.545Z,231.07
2023-01-12T22:55:26.536Z,244.75
2023-01-12T22:57:54.249Z,261.80
2023-01-12T23:00:22.318Z,257.42
2023-01-12T23:03:00.757Z,263.55
2023-01-12T23:05:31.796Z,244.68
2023-01-12T23:07:59.987Z,252.48
2023-01-12T23:10:27.799Z,243.75
2023-01-12T23:13:15.528Z,250.75
2023-01-12T23:15:47.724Z,235.70
2023-01-12T23:18:19.226Z,237.98
2023-01-12T23:20:47.567Z,256.75
2023-01-12T23:23:17.576Z,243.98
2023-01-12T23:25:46.529Z,244.40
2023-01-12T23:28:15.764Z,265.13
2023-01-12T23:30:43.832Z,261.25
2023-01-12T23:33:12.653Z,252.60
2023-01-12T23:35:42.800Z,270.90
2023-01-12T23:38:15.887Z,253.45
2023-01-12T23:40:43.497Z,250.25
2023-01-12T23:43:11.107Z,259.42
2023-01-12T23:45:38.754Z,248.30
2023-01-12T23:48:07.729Z,257.98
2023-01-12T23:50:35.439Z,253.13
2023-01-12T23:53:04.894Z,284.45
2023-01-12T23:55:32.506Z,266.10
2023-01-12T23:58:00.115Z,271.70
